sensor_id;sensor_type;location;lat;lon;timestamp;pressure;altitude;pressure_sealevel;temperature;humidity
23643;BME280;11998;55.788;37.572;2023-05-16T00:00:59;99327.06;;;93.91;2.92
23643;BME280;11998;55.788;37.572;2023-05-16T00:02:00;99324.22;;;93.76;2.91
23643;BME280;11998;55.788;37.572;2023-05-16T00:03:03;99321.31;;;93.08;3.21
23643;BME280;11998;55.788;37.572;2023-05-16T00:04:04;99329.09;;;93.88;3.04
23643;BME280;11998;55.788;37.572;2023-05-16T00:05:05;99331.44;;;94.42;2.79
23643;BME280;11998;55.788;37.572;2023-05-16T00:06:07;99325.84;;;94.65;2.78
23643;BME280;11998;55.788;37.572;2023-05-16T00:07:08;99331.44;;;95.15;2.82
23643;BME280;11998;55.788;37.572;2023-05-16T00:08:08;99328.19;;;94.57;2.82
23643;BME280;11998;55.788;37.572;2023-05-16T00:09:09;99326.25;;;94.52;2.69
23643;BME280;11998;55.788;37.572;2023-05-16T00:10:10;99330.63;;;95.05;2.61
23643;BME280;11998;55.788;37.572;2023-05-16T00:11:11;99328.63;;;95.17;2.73
23643;BME280;11998;55.788;37.572;2023-05-16T00:12:12;99325.66;;;94.63;2.73
23643;BME280;11998;55.788;37.572;2023-05-16T00:13:12;99328.34;;;94.59;2.71
23643;BME280;11998;55.788;37.572;2023-05-16T00:14:13;99330.91;;;94.63;2.88
23643;BME280;11998;55.788;37.572;2023-05-16T00:15:14;99329.88;;;94.77;2.73
23643;BME280;11998;55.788;37.572;2023-05-16T00:16:15;99322.78;;;93.42;2.92
23643;BME280;11998;55.788;37.572;2023-05-16T00:17:15;99319.31;;;94.32;2.88
23643;BME280;11998;55.788;37.572;2023-05-16T00:18:17;99324.84;;;94.90;2.73
23643;BME280;11998;55.788;37.572;2023-05-16T00:19:18;99322.66;;;95.00;2.63
23643;BME280;11998;55.788;37.572;2023-05-16T00:20:19;99318.84;;;94.90;2.84
23643;BME280;11998;55.788;37.572;2023-05-16T00:21:23;99313.53;;;95.17;2.56
23643;BME280;11998;55.788;37.572;2023-05-16T00:22:24;99319.38;;;95.05;2.87
23643;BME280;11998;55.788;37.572;2023-05-16T00:23:24;99322.59;;;94.81;2.72
23643;BME280;11998;55.788;37.572;2023-05-16T00:24:25;99314.19;;;95.25;2.81
23643;BME280;11998;55.788;37.572;2023-05-16T00:25:26;99323.09;;;95.43;2.71
23643;BME280;11998;55.788;37.572;2023-05-16T00:26:28;99320.75;;;95.60;2.59
23643;BME280;11998;55.788;37.572;2023-05-16T00:27:28;99317.91;;;95.72;2.72
23643;BME280;11998;55.788;37.572;2023-05-16T00:28:29;99324.09;;;95.65;2.56
23643;BME280;11998;55.788;37.572;2023-05-16T00:29:30;99323.31;;;95.93;2.69
23643;BME280;11998;55.788;37.572;2023-05-16T00:30:31;99311.09;;;95.81;2.56
23643;BME280;11998;55.788;37.572;2023-05-16T00:31:31;99318.69;;;96.02;2.55
23643;BME280;11998;55.788;37.572;2023-05-16T00:32:32;99323.47;;;96.05;2.50
23643;BME280;11998;55.788;37.572;2023-05-16T00:33:33;99316.28;;;96.20;2.50
23643;BME280;11998;55.788;37.572;2023-05-16T00:34:34;99312.50;;;95.90;2.65
23643;BME280;11998;55.788;37.572;2023-05-16T00:35:35;99311.84;;;95.53;2.60
23643;BME280;11998;55.788;37.572;2023-05-16T00:36:35;99314.84;;;95.33;2.55
23643;BME280;11998;55.788;37.572;2023-05-16T00:37:37;99309.75;;;95.36;2.77
23643;BME280;11998;55.788;37.572;2023-05-16T00:38:38;99302.78;;;95.53;2.72
23643;BME280;11998;55.788;37.572;2023-05-16T00:39:38;99309.47;;;95.61;2.78
23643;BME280;11998;55.788;37.572;2023-05-16T00:40:39;99310.59;;;95.85;2.67
23643;BME280;11998;55.788;37.572;2023-05-16T00:41:40;99311.19;;;96.12;2.48
23643;BME280;11998;55.788;37.572;2023-05-16T00:42:41;99315.97;;;96.15;2.49
23643;BME280;11998;55.788;37.572;2023-05-16T00:43:41;99305.38;;;95.85;2.61
23643;BME280;11998;55.788;37.572;2023-05-16T00:44:42;99308.81;;;96.11;2.71
23643;BME280;11998;55.788;37.572;2023-05-16T00:45:42;99312.13;;;96.15;2.47
23643;BME280;11998;55.788;37.572;2023-05-16T00:46:43;99307.53;;;96.14;2.57
23643;BME280;11998;55.788;37.572;2023-05-16T00:47:44;99302.66;;;95.70;2.80
23643;BME280;11998;55.788;37.572;2023-05-16T00:48:44;99308.22;;;95.64;2.62
23643;BME280;11998;55.788;37.572;2023-05-16T00:49:46;99305.06;;;95.81;2.69
23643;BME280;11998;55.788;37.572;2023-05-16T00:50:47;99309.47;;;96.19;2.55
23643;BME280;11998;55.788;37.572;2023-05-16T00:51:48;99312.09;;;96.44;2.54
23643;BME280;11998;55.788;37.572;2023-05-16T00:52:49;99308.19;;;96.22;2.52
23643;BME280;11998;55.788;37.572;2023-05-16T00:53:50;99305.13;;;96.41;2.42
23643;BME280;11998;55.788;37.572;2023-05-16T00:54:51;99307.34;;;96.41;2.39
23643;BME280;11998;55.788;37.572;2023-05-16T00:55:52;99308.00;;;96.30;2.69
23643;BME280;11998;55.788;37.572;2023-05-16T00:56:52;99294.63;;;96.42;2.47
23643;BME280;11998;55.788;37.572;2023-05-16T00:57:53;99312.31;;;96.67;2.57
23643;BME280;11998;55.788;37.572;2023-05-16T00:58:54;99300.25;;;96.17;2.71
23643;BME280;11998;55.788;37.572;2023-05-16T00:59:54;99296.34;;;96.45;2.63
23643;BME280;11998;55.788;37.572;2023-05-16T01:00:55;99300.25;;;96.67;2.83
23643;BME280;11998;55.788;37.572;2023-05-16T01:01:56;99298.94;;;96.30;2.59
23643;BME280;11998;55.788;37.572;2023-05-16T01:02:56;99302.94;;;96.73;2.74
23643;BME280;11998;55.788;37.572;2023-05-16T01:03:57;99302.94;;;96.73;2.57
23643;BME280;11998;55.788;37.572;2023-05-16T01:05:00;99297.28;;;96.89;2.58
23643;BME280;11998;55.788;37.572;2023-05-16T01:06:00;99299.13;;;96.63;2.64
23643;BME280;11998;55.788;37.572;2023-05-16T01:07:01;99298.56;;;96.55;2.52
23643;BME280;11998;55.788;37.572;2023-05-16T01:08:02;99290.03;;;96.41;2.74
23643;BME280;11998;55.788;37.572;2023-05-16T01:09:02;99295.69;;;96.57;2.58
23643;BME280;11998;55.788;37.572;2023-05-16T01:10:04;99293.72;;;96.71;2.53
23643;BME280;11998;55.788;37.572;2023-05-16T01:15:12;99284.38;;;95.29;2.70
23643;BME280;11998;55.788;37.572;2023-05-16T01:16:21;99275.75;;;92.70;3.18
23643;BME280;11998;55.788;37.572;2023-05-16T01:18:47;99254.91;;;85.56;4.12
23643;BME280;11998;55.788;37.572;2023-05-16T01:21:27;99274.06;;;87.70;3.95
23643;BME280;11998;55.788;37.572;2023-05-16T01:22:51;99259.84;;;84.52;4.50
23643;BME280;11998;55.788;37.572;2023-05-16T01:24:08;99271.38;;;86.94;3.95
23643;BME280;11998;55.788;37.572;2023-05-16T01:25:38;99286.22;;;89.71;3.62
23643;BME280;11998;55.788;37.572;2023-05-16T01:26:45;99288.88;;;89.54;3.74
23643;BME280;11998;55.788;37.572;2023-05-16T01:27:46;99298.28;;;90.30;3.52
23643;BME280;11998;55.788;37.572;2023-05-16T01:28:48;99296.41;;;89.75;3.50
23643;BME280;11998;55.788;37.572;2023-05-16T01:29:54;99299.91;;;89.95;3.67
23643;BME280;11998;55.788;37.572;2023-05-16T01:30:55;99302.22;;;89.81;3.74
23643;BME280;11998;55.788;37.572;2023-05-16T01:31:56;99286.75;;;88.57;3.58
23643;BME280;11998;55.788;37.572;2023-05-16T01:32:57;99297.13;;;89.97;3.56
23643;BME280;11998;55.788;37.572;2023-05-16T01:33:57;99308.06;;;91.35;3.35
23643;BME280;11998;55.788;37.572;2023-05-16T01:34:58;99303.00;;;90.10;3.60
23643;BME280;11998;55.788;37.572;2023-05-16T01:37:29;99303.41;;;90.58;3.59
23643;BME280;11998;55.788;37.572;2023-05-16T01:38:43;99303.38;;;89.70;3.74
23643;BME280;11998;55.788;37.572;2023-05-16T01:41:24;99287.34;;;90.40;3.45
23643;BME280;11998;55.788;37.572;2023-05-16T01:42:31;99292.00;;;88.99;3.85
23643;BME280;11998;55.788;37.572;2023-05-16T01:43:38;99297.03;;;89.25;3.76
23643;BME280;11998;55.788;37.572;2023-05-16T01:45:09;99279.06;;;83.59;4.70
23643;BME280;11998;55.788;37.572;2023-05-16T01:46:14;99276.84;;;85.53;4.34
23643;BME280;11998;55.788;37.572;2023-05-16T01:47:16;99295.06;;;87.64;3.81
23643;BME280;11998;55.788;37.572;2023-05-16T01:48:22;99301.56;;;88.29;3.91
23643;BME280;11998;55.788;37.572;2023-05-16T01:49:37;99298.28;;;89.08;3.79
23643;BME280;11998;55.788;37.572;2023-05-16T01:50:43;99307.66;;;90.26;3.35
23643;BME280;11998;55.788;37.572;2023-05-16T01:51:51;99314.94;;;90.46;3.60
23643;BME280;11998;55.788;37.572;2023-05-16T01:53:05;99309.66;;;90.31;3.63
23643;BME280;11998;55.788;37.572;2023-05-16T01:54:11;99302.44;;;90.19;3.61
23643;BME280;11998;55.788;37.572;2023-05-16T01:55:25;99308.66;;;91.03;3.54
23643;BME280;11998;55.788;37.572;2023-05-16T01:56:30;99310.63;;;91.31;3.38
23643;BME280;11998;55.788;37.572;2023-05-16T01:57:32;99309.84;;;91.31;3.47
23643;BME280;11998;55.788;37.572;2023-05-16T01:58:35;99312.59;;;91.67;3.41
23643;BME280;11998;55.788;37.572;2023-05-16T01:59:37;99306.53;;;91.97;3.41
23643;BME280;11998;55.788;37.572;2023-05-16T02:00:39;99314.56;;;91.87;3.24
23643;BME280;11998;55.788;37.572;2023-05-16T02:01:40;99315.84;;;91.54;3.47
23643;BME280;11998;55.788;37.572;2023-05-16T02:02:40;99314.66;;;91.41;3.37
23643;BME280;11998;55.788;37.572;2023-05-16T02:03:41;99302.28;;;91.14;3.38
23643;BME280;11998;55.788;37.572;2023-05-16T02:04:41;99304.66;;;91.01;3.43
23643;BME280;11998;55.788;37.572;2023-05-16T02:05:42;99309.22;;;90.71;3.49
23643;BME280;11998;55.788;37.572;2023-05-16T02:06:42;99304.31;;;89.65;3.57
23643;BME280;11998;55.788;37.572;2023-05-16T02:07:43;99286.88;;;89.56;3.55
23643;BME280;11998;55.788;37.572;2023-05-16T02:08:44;99303.59;;;90.16;3.50
23643;BME280;11998;55.788;37.572;2023-05-16T02:09:45;99284.34;;;87.29;3.78
23643;BME280;11998;55.788;37.572;2023-05-16T02:10:45;99283.00;;;87.57;3.87
23643;BME280;11998;55.788;37.572;2023-05-16T02:11:46;99278.22;;;86.38;4.13
23643;BME280;11998;55.788;37.572;2023-05-16T02:12:46;99284.03;;;86.50;4.04
23643;BME280;11998;55.788;37.572;2023-05-16T02:13:47;99268.25;;;85.74;4.24
23643;BME280;11998;55.788;37.572;2023-05-16T02:14:47;99277.28;;;86.81;4.04
23643;BME280;11998;55.788;37.572;2023-05-16T02:15:48;99290.84;;;88.33;3.83
23643;BME280;11998;55.788;37.572;2023-05-16T02:16:49;99288.91;;;87.30;3.92
23643;BME280;11998;55.788;37.572;2023-05-16T02:17:49;99283.13;;;87.06;3.83
23643;BME280;11998;55.788;37.572;2023-05-16T02:18:50;99294.25;;;87.90;3.79
23643;BME280;11998;55.788;37.572;2023-05-16T02:19:50;99297.31;;;89.13;3.61
23643;BME280;11998;55.788;37.572;2023-05-16T02:20:51;99295.13;;;88.93;3.58
23643;BME280;11998;55.788;37.572;2023-05-16T02:21:52;99294.41;;;88.45;3.69
23643;BME280;11998;55.788;37.572;2023-05-16T02:22:52;99294.88;;;88.70;3.68
23643;BME280;11998;55.788;37.572;2023-05-16T02:23:53;99312.09;;;89.19;3.65
23643;BME280;11998;55.788;37.572;2023-05-16T02:24:53;99310.19;;;89.21;3.50
23643;BME280;11998;55.788;37.572;2023-05-16T02:25:54;99313.66;;;89.33;3.74
23643;BME280;11998;55.788;37.572;2023-05-16T02:26:55;99304.53;;;89.18;3.80
23643;BME280;11998;55.788;37.572;2023-05-16T02:27:56;99307.88;;;89.14;3.52
23643;BME280;11998;55.788;37.572;2023-05-16T02:28:56;99294.00;;;87.03;3.84
23643;BME280;11998;55.788;37.572;2023-05-16T02:29:57;99298.19;;;87.85;3.85
23643;BME280;11998;55.788;37.572;2023-05-16T02:30:59;99300.47;;;87.66;3.77
23643;BME280;11998;55.788;37.572;2023-05-16T02:31:59;99291.81;;;86.53;4.09
23643;BME280;11998;55.788;37.572;2023-05-16T02:33:00;99283.25;;;84.97;4.32
23643;BME280;11998;55.788;37.572;2023-05-16T02:34:01;99297.09;;;86.97;3.85
23643;BME280;11998;55.788;37.572;2023-05-16T02:35:02;99309.97;;;87.64;3.91
23643;BME280;11998;55.788;37.572;2023-05-16T02:36:03;99312.63;;;89.31;3.74
23643;BME280;11998;55.788;37.572;2023-05-16T02:37:04;99306.28;;;87.71;3.93
23643;BME280;11998;55.788;37.572;2023-05-16T02:38:05;99304.13;;;88.12;3.65
23643;BME280;11998;55.788;37.572;2023-05-16T02:39:05;99303.84;;;88.36;3.68
23643;BME280;11998;55.788;37.572;2023-05-16T02:40:08;99310.22;;;88.53;3.71
23643;BME280;11998;55.788;37.572;2023-05-16T02:41:09;99308.63;;;88.52;3.72
23643;BME280;11998;55.788;37.572;2023-05-16T02:42:10;99311.72;;;88.81;3.72
23643;BME280;11998;55.788;37.572;2023-05-16T02:43:10;99302.75;;;88.13;3.84
23643;BME280;11998;55.788;37.572;2023-05-16T02:44:11;99306.59;;;89.02;3.58
23643;BME280;11998;55.788;37.572;2023-05-16T02:45:11;99324.56;;;90.09;3.64
23643;BME280;11998;55.788;37.572;2023-05-16T02:46:30;99321.81;;;90.85;3.58
23643;BME280;11998;55.788;37.572;2023-05-16T02:47:31;99318.34;;;89.78;3.50
23643;BME280;11998;55.788;37.572;2023-05-16T02:48:31;99314.00;;;88.88;3.67
23643;BME280;11998;55.788;37.572;2023-05-16T02:49:32;99321.97;;;89.06;3.58
23643;BME280;11998;55.788;37.572;2023-05-16T02:50:33;99316.84;;;89.14;3.70
23643;BME280;11998;55.788;37.572;2023-05-16T02:51:33;99316.56;;;89.26;3.72
23643;BME280;11998;55.788;37.572;2023-05-16T02:52:34;99317.97;;;88.70;3.79
23643;BME280;11998;55.788;37.572;2023-05-16T02:53:34;99313.63;;;87.83;3.92
23643;BME280;11998;55.788;37.572;2023-05-16T02:54:35;99309.22;;;89.55;3.62
23643;BME280;11998;55.788;37.572;2023-05-16T02:55:35;99318.56;;;90.68;3.16
23643;BME280;11998;55.788;37.572;2023-05-16T02:56:36;99314.03;;;89.58;3.58
23643;BME280;11998;55.788;37.572;2023-05-16T02:57:37;99319.69;;;89.69;3.51
23643;BME280;11998;55.788;37.572;2023-05-16T02:58:37;99321.50;;;90.01;3.66
23643;BME280;11998;55.788;37.572;2023-05-16T02:59:38;99319.69;;;90.42;3.45
23643;BME280;11998;55.788;37.572;2023-05-16T03:00:38;99312.88;;;89.61;3.70
23643;BME280;11998;55.788;37.572;2023-05-16T03:01:39;99315.59;;;89.52;3.72
23643;BME280;11998;55.788;37.572;2023-05-16T03:02:40;99326.09;;;90.02;3.38
23643;BME280;11998;55.788;37.572;2023-05-16T03:03:40;99314.66;;;88.26;3.81
23643;BME280;11998;55.788;37.572;2023-05-16T03:04:41;99316.16;;;89.21;3.63
23643;BME280;11998;55.788;37.572;2023-05-16T03:05:41;99300.19;;;87.64;3.92
23643;BME280;11998;55.788;37.572;2023-05-16T03:06:42;99304.56;;;88.16;3.82
23643;BME280;11998;55.788;37.572;2023-05-16T03:07:43;99312.47;;;89.15;3.69
23643;BME280;11998;55.788;37.572;2023-05-16T03:08:43;99306.41;;;87.52;3.89
23643;BME280;11998;55.788;37.572;2023-05-16T03:09:44;99295.75;;;87.12;4.02
23643;BME280;11998;55.788;37.572;2023-05-16T03:10:45;99306.34;;;88.45;3.71
23643;BME280;11998;55.788;37.572;2023-05-16T03:11:45;99290.13;;;87.08;3.97
23643;BME280;11998;55.788;37.572;2023-05-16T03:12:46;99296.59;;;87.84;3.85
23643;BME280;11998;55.788;37.572;2023-05-16T03:13:47;99295.63;;;88.02;3.75
23643;BME280;11998;55.788;37.572;2023-05-16T03:14:47;99294.22;;;86.73;4.00
23643;BME280;11998;55.788;37.572;2023-05-16T03:15:48;99291.50;;;86.37;4.06
23643;BME280;11998;55.788;37.572;2023-05-16T03:16:49;99301.25;;;87.79;3.70
23643;BME280;11998;55.788;37.572;2023-05-16T03:17:49;99307.22;;;87.93;3.75
23643;BME280;11998;55.788;37.572;2023-05-16T03:18:50;99302.28;;;87.82;3.79
23643;BME280;11998;55.788;37.572;2023-05-16T03:19:51;99296.44;;;87.05;3.92
23643;BME280;11998;55.788;37.572;2023-05-16T03:20:51;99294.72;;;87.68;3.88
23643;BME280;11998;55.788;37.572;2023-05-16T03:21:52;99294.47;;;87.52;3.94
23643;BME280;11998;55.788;37.572;2023-05-16T03:22:53;99312.81;;;88.70;3.73
23643;BME280;11998;55.788;37.572;2023-05-16T03:23:53;99307.75;;;88.31;3.79
23643;BME280;11998;55.788;37.572;2023-05-16T03:24:54;99317.69;;;89.64;3.52
23643;BME280;11998;55.788;37.572;2023-05-16T03:25:55;99327.03;;;89.40;3.68
23643;BME280;11998;55.788;37.572;2023-05-16T03:26:56;99313.06;;;88.93;3.68
23643;BME280;11998;55.788;37.572;2023-05-16T03:27:58;99322.59;;;88.57;3.51
23643;BME280;11998;55.788;37.572;2023-05-16T03:28:59;99316.47;;;88.76;3.72
23643;BME280;11998;55.788;37.572;2023-05-16T03:29:59;99311.91;;;88.15;3.86
23643;BME280;11998;55.788;37.572;2023-05-16T03:31:00;99323.16;;;88.08;3.75
23643;BME280;11998;55.788;37.572;2023-05-16T03:32:00;99314.66;;;88.26;3.66
23643;BME280;11998;55.788;37.572;2023-05-16T03:33:01;99320.34;;;89.05;3.56
23643;BME280;11998;55.788;37.572;2023-05-16T03:34:03;99326.34;;;89.05;3.72
23643;BME280;11998;55.788;37.572;2023-05-16T03:35:04;99323.72;;;89.22;3.50
23643;BME280;11998;55.788;37.572;2023-05-16T03:36:04;99319.34;;;89.24;3.55
23643;BME280;11998;55.788;37.572;2023-05-16T03:37:05;99317.34;;;89.75;3.54
23643;BME280;11998;55.788;37.572;2023-05-16T03:38:06;99320.13;;;88.82;3.65
23643;BME280;11998;55.788;37.572;2023-05-16T03:39:07;99322.63;;;89.33;3.49
23643;BME280;11998;55.788;37.572;2023-05-16T03:40:08;99322.84;;;89.14;3.52
23643;BME280;11998;55.788;37.572;2023-05-16T03:41:08;99316.44;;;88.42;3.75
23643;BME280;11998;55.788;37.572;2023-05-16T03:42:09;99332.47;;;89.20;3.53
23643;BME280;11998;55.788;37.572;2023-05-16T03:43:10;99332.47;;;89.70;3.46
23643;BME280;11998;55.788;37.572;2023-05-16T03:44:10;99330.75;;;89.54;3.46
23643;BME280;11998;55.788;37.572;2023-05-16T03:45:11;99325.78;;;89.56;3.53
23643;BME280;11998;55.788;37.572;2023-05-16T03:46:11;99331.03;;;90.95;3.30
23643;BME280;11998;55.788;37.572;2023-05-16T03:47:12;99331.31;;;90.53;3.37
23643;BME280;11998;55.788;37.572;2023-05-16T03:48:13;99331.66;;;89.98;3.45
23643;BME280;11998;55.788;37.572;2023-05-16T03:49:13;99337.28;;;90.53;3.57
23643;BME280;11998;55.788;37.572;2023-05-16T03:50:14;99334.63;;;91.01;3.66
23643;BME280;11998;55.788;37.572;2023-05-16T03:51:15;99340.22;;;91.73;3.12
23643;BME280;11998;55.788;37.572;2023-05-16T03:52:16;99340.22;;;91.73;3.47
23643;BME280;11998;55.788;37.572;2023-05-16T03:53:16;99344.66;;;92.60;2.92
23643;BME280;11998;55.788;37.572;2023-05-16T03:54:17;99350.97;;;92.39;3.31
23643;BME280;11998;55.788;37.572;2023-05-16T03:55:19;99343.56;;;92.40;3.39
23643;BME280;11998;55.788;37.572;2023-05-16T03:56:19;99353.19;;;93.04;3.32
23643;BME280;11998;55.788;37.572;2023-05-16T03:57:21;99349.13;;;93.34;3.04
23643;BME280;11998;55.788;37.572;2023-05-16T03:58:21;99357.50;;;94.30;2.83
23643;BME280;11998;55.788;37.572;2023-05-16T03:59:22;99356.03;;;94.75;2.95
23643;BME280;11998;55.788;37.572;2023-05-16T04:00:23;99352.22;;;95.11;2.94
23643;BME280;11998;55.788;37.572;2023-05-16T04:01:24;99355.53;;;97.11;2.53
23643;BME280;11998;55.788;37.572;2023-05-16T04:02:24;99351.66;;;97.20;2.87
23643;BME280;11998;55.788;37.572;2023-05-16T04:03:25;99351.63;;;97.51;2.55
23643;BME280;11998;55.788;37.572;2023-05-16T04:04:27;99350.81;;;97.50;2.63
23643;BME280;11998;55.788;37.572;2023-05-16T04:05:28;99353.28;;;98.30;2.46
23643;BME280;11998;55.788;37.572;2023-05-16T04:06:28;99352.28;;;99.42;2.53
23643;BME280;11998;55.788;37.572;2023-05-16T04:07:30;99347.25;;;100.10;2.30
23643;BME280;11998;55.788;37.572;2023-05-16T04:08:30;99346.84;;;100.82;2.54
23643;BME280;11998;55.788;37.572;2023-05-16T04:09:31;99339.88;;;100.79;2.35
23643;BME280;11998;55.788;37.572;2023-05-16T04:10:32;99345.84;;;101.91;2.02
23643;BME280;11998;55.788;37.572;2023-05-16T04:11:32;99329.81;;;101.75;1.91
23643;BME280;11998;55.788;37.572;2023-05-16T04:12:33;99333.84;;;102.25;2.30
23643;BME280;11998;55.788;37.572;2023-05-16T04:13:34;99334.69;;;101.66;2.38
23643;BME280;11998;55.788;37.572;2023-05-16T04:14:35;99333.44;;;102.48;2.20
23643;BME280;11998;55.788;37.572;2023-05-16T04:15:35;99337.56;;;102.55;1.99
23643;BME280;11998;55.788;37.572;2023-05-16T04:16:36;99324.78;;;102.27;2.32
23643;BME280;11998;55.788;37.572;2023-05-16T04:17:36;99340.03;;;103.08;2.06
23643;BME280;11998;55.788;37.572;2023-05-16T04:18:37;99332.91;;;103.53;1.88
23643;BME280;11998;55.788;37.572;2023-05-16T04:19:37;99328.06;;;104.98;1.82
23643;BME280;11998;55.788;37.572;2023-05-16T04:20:38;99329.09;;;105.49;2.13
23643;BME280;11998;55.788;37.572;2023-05-16T04:21:39;99320.31;;;105.61;1.57
23643;BME280;11998;55.788;37.572;2023-05-16T04:22:39;99328.69;;;106.06;2.15
23643;BME280;11998;55.788;37.572;2023-05-16T04:23:41;99324.56;;;107.00;1.83
23643;BME280;11998;55.788;37.572;2023-05-16T04:24:41;99323.78;;;106.71;1.89
23643;BME280;11998;55.788;37.572;2023-05-16T04:25:42;99329.91;;;107.89;1.59
23643;BME280;11998;55.788;37.572;2023-05-16T04:26:43;99324.00;;;107.99;1.83
23643;BME280;11998;55.788;37.572;2023-05-16T04:27:44;99317.44;;;106.39;2.14
23643;BME280;11998;55.788;37.572;2023-05-16T04:28:45;99314.72;;;105.77;2.07
23643;BME280;11998;55.788;37.572;2023-05-16T04:29:45;99321.00;;;105.81;1.72
23643;BME280;11998;55.788;37.572;2023-05-16T04:30:46;99316.38;;;106.04;1.85
23643;BME280;11998;55.788;37.572;2023-05-16T04:31:47;99329.09;;;106.70;1.79
23643;BME280;11998;55.788;37.572;2023-05-16T04:32:48;99314.06;;;106.29;1.84
23643;BME280;11998;55.788;37.572;2023-05-16T04:33:49;99313.50;;;105.41;1.81
23643;BME280;11998;55.788;37.572;2023-05-16T04:34:50;99324.44;;;106.95;1.98
23643;BME280;11998;55.788;37.572;2023-05-16T04:35:52;99337.97;;;108.41;1.74
23643;BME280;11998;55.788;37.572;2023-05-16T04:36:54;99335.66;;;108.79;1.93
23643;BME280;11998;55.788;37.572;2023-05-16T04:37:54;99325.50;;;107.96;1.89
23643;BME280;11998;55.788;37.572;2023-05-16T04:38:55;99313.97;;;107.65;1.64
23643;BME280;11998;55.788;37.572;2023-05-16T04:39:56;99328.53;;;108.30;1.69
23643;BME280;11998;55.788;37.572;2023-05-16T04:40:58;99320.91;;;107.97;1.55
23643;BME280;11998;55.788;37.572;2023-05-16T04:41:59;99323.00;;;108.23;1.65
23643;BME280;11998;55.788;37.572;2023-05-16T04:43:01;99314.66;;;108.66;1.98
23643;BME280;11998;55.788;37.572;2023-05-16T04:44:01;99332.78;;;109.32;1.77
23643;BME280;11998;55.788;37.572;2023-05-16T04:45:06;99323.66;;;108.55;1.63
23643;BME280;11998;55.788;37.572;2023-05-16T04:46:10;99317.50;;;109.36;1.93
23643;BME280;11998;55.788;37.572;2023-05-16T04:47:11;99314.06;;;108.73;1.73
23643;BME280;11998;55.788;37.572;2023-05-16T04:48:11;99308.22;;;107.81;1.96
23643;BME280;11998;55.788;37.572;2023-05-16T04:49:12;99303.47;;;107.74;1.73
23643;BME280;11998;55.788;37.572;2023-05-16T04:50:13;99318.75;;;108.40;1.97
23643;BME280;11998;55.788;37.572;2023-05-16T04:51:15;99317.88;;;108.35;1.78
23643;BME280;11998;55.788;37.572;2023-05-16T04:52:16;99310.25;;;108.02;1.77
23643;BME280;11998;55.788;37.572;2023-05-16T04:53:16;99302.31;;;106.71;1.83
23643;BME280;11998;55.788;37.572;2023-05-16T04:54:17;99312.91;;;107.84;1.60
23643;BME280;11998;55.788;37.572;2023-05-16T04:55:17;99316.84;;;108.23;1.80
23643;BME280;11998;55.788;37.572;2023-05-16T04:56:18;99320.66;;;108.57;1.45
23643;BME280;11998;55.788;37.572;2023-05-16T04:57:19;99324.09;;;108.40;1.84
23643;BME280;11998;55.788;37.572;2023-05-16T04:58:20;99318.00;;;108.80;1.78
23643;BME280;11998;55.788;37.572;2023-05-16T04:59:23;99313.34;;;107.40;1.99
23643;BME280;11998;55.788;37.572;2023-05-16T05:00:24;99318.44;;;108.24;1.70
23643;BME280;11998;55.788;37.572;2023-05-16T05:01:25;99321.38;;;107.53;1.75
23643;BME280;11998;55.788;37.572;2023-05-16T05:02:25;99317.91;;;108.01;1.77
23643;BME280;11998;55.788;37.572;2023-05-16T05:03:26;99321.34;;;106.41;1.80
23643;BME280;11998;55.788;37.572;2023-05-16T05:04:27;99318.69;;;106.56;1.84
23643;BME280;11998;55.788;37.572;2023-05-16T05:05:28;99326.59;;;107.47;1.81
23643;BME280;11998;55.788;37.572;2023-05-16T05:06:28;99325.34;;;107.00;1.95
23643;BME280;11998;55.788;37.572;2023-05-16T05:07:29;99326.03;;;106.96;1.78
23643;BME280;11998;55.788;37.572;2023-05-16T05:08:29;99330.56;;;106.18;2.04
23643;BME280;11998;55.788;37.572;2023-05-16T05:09:30;99324.44;;;106.95;1.51
23643;BME280;11998;55.788;37.572;2023-05-16T05:10:31;99343.25;;;108.36;1.50
23643;BME280;11998;55.788;37.572;2023-05-16T05:11:31;99345.56;;;108.74;1.66
23643;BME280;11998;55.788;37.572;2023-05-16T05:12:32;99339.38;;;105.81;1.70
23643;BME280;11998;55.788;37.572;2023-05-16T05:13:33;99328.53;;;103.76;1.69
23643;BME280;11998;55.788;37.572;2023-05-16T05:14:33;99326.44;;;105.61;1.87
23643;BME280;11998;55.788;37.572;2023-05-16T05:15:34;99330.34;;;104.38;2.04
23643;BME280;11998;55.788;37.572;2023-05-16T05:16:35;99338.97;;;103.35;2.09
23643;BME280;11998;55.788;37.572;2023-05-16T05:17:36;99323.53;;;104.40;2.05
23643;BME280;11998;55.788;37.572;2023-05-16T05:18:37;99325.16;;;105.24;1.78
23643;BME280;11998;55.788;37.572;2023-05-16T05:19:37;99326.00;;;106.44;1.63
23643;BME280;11998;55.788;37.572;2023-05-16T05:20:38;99331.28;;;106.66;1.67
23643;BME280;11998;55.788;37.572;2023-05-16T05:21:40;99317.44;;;104.40;1.39
23643;BME280;11998;55.788;37.572;2023-05-16T05:22:41;99324.09;;;106.31;1.82
23643;BME280;11998;55.788;37.572;2023-05-16T05:23:42;99323.50;;;104.80;1.77
23643;BME280;11998;55.788;37.572;2023-05-16T05:24:42;99330.47;;;106.39;1.94
23643;BME280;11998;55.788;37.572;2023-05-16T05:25:43;99323.91;;;105.31;1.51
23643;BME280;11998;55.788;37.572;2023-05-16T05:26:43;99328.38;;;105.50;1.49
23643;BME280;11998;55.788;37.572;2023-05-16T05:27:45;99332.97;;;105.73;1.52
23643;BME280;11998;55.788;37.572;2023-05-16T05:28:45;99344.59;;;106.01;1.70
23643;BME280;11998;55.788;37.572;2023-05-16T05:29:46;99328.56;;;104.13;2.03
23643;BME280;11998;55.788;37.572;2023-05-16T05:30:46;99332.66;;;104.20;1.44
23643;BME280;11998;55.788;37.572;2023-05-16T05:31:47;99331.25;;;105.68;1.85
23643;BME280;11998;55.788;37.572;2023-05-16T05:32:48;99338.59;;;107.09;1.35
23643;BME280;11998;55.788;37.572;2023-05-16T05:33:48;99332.69;;;105.21;1.95
23643;BME280;11998;55.788;37.572;2023-05-16T05:34:49;99349.16;;;106.00;1.78
23643;BME280;11998;55.788;37.572;2023-05-16T05:35:50;99323.44;;;105.19;1.43